sensor_id;sensor_type;location;lat;lon;timestamp;P1;durP1;ratioP1;P2;durP2;ratioP2
78430;SDS011;67727;50.236;22.452;2024-03-25T00:00:46;74.50;;;35.10;;
78430;SDS011;67727;50.236;22.452;2024-03-25T00:03:33;63.20;;;33.80;;
78430;SDS011;67727;50.236;22.452;2024-03-25T00:06:00;61.50;;;30.10;;
78430;SDS011;67727;50.236;22.452;2024-03-25T00:08:27;46.80;;;24.50;;
78430;SDS011;67727;50.236;22.452;2024-03-25T00:10:54;51.50;;;26.20;;
78430;SDS011;67727;50.236;22.452;2024-03-25T00:13:21;53.70;;;24.80;;
78430;SDS011;67727;50.236;22.452;2024-03-25T00:15:48;50.40;;;25.90;;
78430;SDS011;67727;50.236;22.452;2024-03-25T00:18:15;55.50;;;24.00;;
78430;SDS011;67727;50.236;22.452;2024-03-25T00:20:42;50.90;;;24.40;;
78430;SDS011;67727;50.236;22.452;2024-03-25T00:23:09;41.40;;;20.90;;
78430;SDS011;67727;50.236;22.452;2024-03-25T00:25:36;47.80;;;21.70;;
78430;SDS011;67727;50.236;22.452;2024-03-25T00:28:03;43.00;;;22.80;;
78430;SDS011;67727;50.236;22.452;2024-03-25T00:30:30;50.90;;;23.30;;
78430;SDS011;67727;50.236;22.452;2024-03-25T00:32:57;43.10;;;22.60;;
78430;SDS011;67727;50.236;22.452;2024-03-25T00:35:24;44.00;;;21.80;;
78430;SDS011;67727;50.236;22.452;2024-03-25T00:37:51;43.00;;;21.20;;
78430;SDS011;67727;50.236;22.452;2024-03-25T00:40:18;46.60;;;21.40;;
78430;SDS011;67727;50.236;22.452;2024-03-25T00:42:45;46.20;;;22.80;;
78430;SDS011;67727;50.236;22.452;2024-03-25T00:45:12;42.20;;;22.40;;
78430;SDS011;67727;50.236;22.452;2024-03-25T00:47:39;45.80;;;23.80;;
78430;SDS011;67727;50.236;22.452;2024-03-25T00:50:06;36.50;;;20.80;;
78430;SDS011;67727;50.236;22.452;2024-03-25T00:52:34;38.90;;;22.30;;
78430;SDS011;67727;50.236;22.452;2024-03-25T00:55:01;40.00;;;22.50;;
78430;SDS011;67727;50.236;22.452;2024-03-25T00:57:28;43.60;;;20.80;;
78430;SDS011;67727;50.236;22.452;2024-03-25T00:59:56;37.60;;;21.00;;
78430;SDS011;67727;50.236;22.452;2024-03-25T01:02:23;39.70;;;21.50;;
78430;SDS011;67727;50.236;22.452;2024-03-25T01:04:49;40.70;;;20.30;;
78430;SDS011;67727;50.236;22.452;2024-03-25T01:07:16;44.80;;;22.10;;
78430;SDS011;67727;50.236;22.452;2024-03-25T01:09:43;44.00;;;21.20;;
78430;SDS011;67727;50.236;22.452;2024-03-25T01:12:10;41.70;;;21.20;;
78430;SDS011;67727;50.236;22.452;2024-03-25T01:14:36;44.30;;;22.60;;
78430;SDS011;67727;50.236;22.452;2024-03-25T01:17:03;40.80;;;22.20;;
78430;SDS011;67727;50.236;22.452;2024-03-25T01:19:30;42.60;;;21.80;;
78430;SDS011;67727;50.236;22.452;2024-03-25T01:21:57;41.30;;;21.20;;
78430;SDS011;67727;50.236;22.452;2024-03-25T01:24:24;45.10;;;22.20;;
78430;SDS011;67727;50.236;22.452;2024-03-25T01:26:51;47.30;;;22.90;;
78430;SDS011;67727;50.236;22.452;2024-03-25T01:29:18;46.50;;;22.80;;
78430;SDS011;67727;50.236;22.452;2024-03-25T01:31:45;42.50;;;22.40;;
78430;SDS011;67727;50.236;22.452;2024-03-25T01:34:12;41.90;;;20.80;;
78430;SDS011;67727;50.236;22.452;2024-03-25T01:36:38;39.00;;;20.70;;
78430;SDS011;67727;50.236;22.452;2024-03-25T01:39:06;37.20;;;20.00;;
78430;SDS011;67727;50.236;22.452;2024-03-25T01:41:32;38.50;;;19.50;;
78430;SDS011;67727;50.236;22.452;2024-03-25T01:43:59;39.70;;;20.10;;
78430;SDS011;67727;50.236;22.452;2024-03-25T01:46:26;36.10;;;18.90;;
78430;SDS011;67727;50.236;22.452;2024-03-25T01:48:53;37.00;;;18.90;;
78430;SDS011;67727;50.236;22.452;2024-03-25T01:51:24;39.40;;;19.40;;
78430;SDS011;67727;50.236;22.452;2024-03-25T01:53:52;34.50;;;16.60;;
78430;SDS011;67727;50.236;22.452;2024-03-25T01:56:21;34.70;;;17.90;;
78430;SDS011;67727;50.236;22.452;2024-03-25T01:58:50;33.60;;;18.10;;
78430;SDS011;67727;50.236;22.452;2024-03-25T02:01:17;33.90;;;16.50;;
78430;SDS011;67727;50.236;22.452;2024-03-25T02:03:45;30.10;;;16.00;;
78430;SDS011;67727;50.236;22.452;2024-03-25T02:06:13;30.50;;;16.70;;
78430;SDS011;67727;50.236;22.452;2024-03-25T02:08:44;35.00;;;18.60;;
78430;SDS011;67727;50.236;22.452;2024-03-25T02:11:11;32.20;;;17.60;;
78430;SDS011;67727;50.236;22.452;2024-03-25T02:13:38;32.80;;;16.90;;
78430;SDS011;67727;50.236;22.452;2024-03-25T02:16:06;34.70;;;18.90;;
78430;SDS011;67727;50.236;22.452;2024-03-25T02:18:33;33.00;;;18.50;;
78430;SDS011;67727;50.236;22.452;2024-03-25T02:21:00;29.30;;;17.30;;
78430;SDS011;67727;50.236;22.452;2024-03-25T02:23:27;35.50;;;17.30;;
78430;SDS011;67727;50.236;22.452;2024-03-25T02:25:54;32.40;;;17.40;;
78430;SDS011;67727;50.236;22.452;2024-03-25T02:28:21;30.60;;;16.10;;
78430;SDS011;67727;50.236;22.452;2024-03-25T02:30:48;25.60;;;15.60;;
78430;SDS011;67727;50.236;22.452;2024-03-25T02:33:15;30.70;;;17.20;;
78430;SDS011;67727;50.236;22.452;2024-03-25T02:35:42;28.10;;;16.00;;
78430;SDS011;67727;50.236;22.452;2024-03-25T02:38:11;32.40;;;16.30;;
78430;SDS011;67727;50.236;22.452;2024-03-25T02:40:37;36.20;;;16.90;;
78430;SDS011;67727;50.236;22.452;2024-03-25T02:43:05;26.30;;;15.00;;
78430;SDS011;67727;50.236;22.452;2024-03-25T02:45:33;25.60;;;15.50;;
78430;SDS011;67727;50.236;22.452;2024-03-25T02:48:00;29.20;;;16.60;;
78430;SDS011;67727;50.236;22.452;2024-03-25T02:50:27;28.00;;;16.30;;
78430;SDS011;67727;50.236;22.452;2024-03-25T02:52:53;32.70;;;18.40;;
78430;SDS011;67727;50.236;22.452;2024-03-25T02:55:20;33.60;;;17.30;;
78430;SDS011;67727;50.236;22.452;2024-03-25T02:57:47;33.60;;;17.20;;
78430;SDS011;67727;50.236;22.452;2024-03-25T03:00:14;32.30;;;16.00;;
78430;SDS011;67727;50.236;22.452;2024-03-25T03:02:41;29.60;;;15.20;;
78430;SDS011;67727;50.236;22.452;2024-03-25T03:05:08;32.10;;;16.50;;
78430;SDS011;67727;50.236;22.452;2024-03-25T03:07:35;29.60;;;17.50;;
78430;SDS011;67727;50.236;22.452;2024-03-25T03:10:01;26.90;;;14.40;;
78430;SDS011;67727;50.236;22.452;2024-03-25T03:12:28;27.90;;;15.70;;
78430;SDS011;67727;50.236;22.452;2024-03-25T03:14:55;29.10;;;16.80;;
78430;SDS011;67727;50.236;22.452;2024-03-25T03:17:22;24.70;;;15.70;;
78430;SDS011;67727;50.236;22.452;2024-03-25T03:19:49;30.90;;;17.30;;
78430;SDS011;67727;50.236;22.452;2024-03-25T03:22:15;30.10;;;15.40;;
78430;SDS011;67727;50.236;22.452;2024-03-25T03:24:43;32.70;;;17.00;;
78430;SDS011;67727;50.236;22.452;2024-03-25T03:27:09;32.40;;;17.00;;
78430;SDS011;67727;50.236;22.452;2024-03-25T03:29:36;27.10;;;15.40;;
78430;SDS011;67727;50.236;22.452;2024-03-25T03:32:03;27.30;;;14.70;;
78430;SDS011;67727;50.236;22.452;2024-03-25T03:34:30;29.00;;;15.60;;
78430;SDS011;67727;50.236;22.452;2024-03-25T03:36:57;29.20;;;14.90;;
78430;SDS011;67727;50.236;22.452;2024-03-25T03:39:24;29.70;;;14.90;;
78430;SDS011;67727;50.236;22.452;2024-03-25T03:41:51;26.60;;;16.10;;
78430;SDS011;67727;50.236;22.452;2024-03-25T03:44:18;26.40;;;15.00;;
78430;SDS011;67727;50.236;22.452;2024-03-25T03:46:45;30.10;;;15.20;;
78430;SDS011;67727;50.236;22.452;2024-03-25T03:49:11;28.50;;;14.80;;
78430;SDS011;67727;50.236;22.452;2024-03-25T03:51:38;25.00;;;14.70;;
78430;SDS011;67727;50.236;22.452;2024-03-25T03:54:05;25.60;;;13.40;;
78430;SDS011;67727;50.236;22.452;2024-03-25T03:56:31;27.80;;;15.50;;
78430;SDS011;67727;50.236;22.452;2024-03-25T03:58:58;25.20;;;14.30;;
78430;SDS011;67727;50.236;22.452;2024-03-25T04:01:25;28.20;;;13.90;;
78430;SDS011;67727;50.236;22.452;2024-03-25T04:03:51;27.20;;;14.70;;
78430;SDS011;67727;50.236;22.452;2024-03-25T04:06:18;24.30;;;13.70;;
78430;SDS011;67727;50.236;22.452;2024-03-25T04:08:45;26.90;;;14.40;;
78430;SDS011;67727;50.236;22.452;2024-03-25T04:11:12;25.70;;;15.30;;
78430;SDS011;67727;50.236;22.452;2024-03-25T04:13:39;23.80;;;14.70;;
78430;SDS011;67727;50.236;22.452;2024-03-25T04:16:06;28.60;;;14.90;;
78430;SDS011;67727;50.236;22.452;2024-03-25T04:18:33;26.80;;;14.00;;
78430;SDS011;67727;50.236;22.452;2024-03-25T04:21:00;24.40;;;13.50;;
78430;SDS011;67727;50.236;22.452;2024-03-25T04:23:27;24.10;;;14.20;;
78430;SDS011;67727;50.236;22.452;2024-03-25T04:25:54;25.80;;;13.90;;
78430;SDS011;67727;50.236;22.452;2024-03-25T04:28:21;24.00;;;14.40;;
78430;SDS011;67727;50.236;22.452;2024-03-25T04:33:21;26.80;;;14.30;;
78430;SDS011;67727;50.236;22.452;2024-03-25T04:35:48;31.20;;;15.40;;
78430;SDS011;67727;50.236;22.452;2024-03-25T04:38:18;29.70;;;15.30;;
78430;SDS011;67727;50.236;22.452;2024-03-25T04:40:45;28.10;;;15.50;;
78430;SDS011;67727;50.236;22.452;2024-03-25T04:43:11;31.80;;;16.60;;
78430;SDS011;67727;50.236;22.452;2024-03-25T04:45:38;24.40;;;13.20;;
78430;SDS011;67727;50.236;22.452;2024-03-25T04:48:05;26.60;;;14.80;;
78430;SDS011;67727;50.236;22.452;2024-03-25T04:50:34;27.70;;;16.00;;
78430;SDS011;67727;50.236;22.452;2024-03-25T04:53:01;29.50;;;14.70;;
78430;SDS011;67727;50.236;22.452;2024-03-25T04:55:28;32.80;;;17.10;;
78430;SDS011;67727;50.236;22.452;2024-03-25T04:57:55;33.10;;;19.20;;
78430;SDS011;67727;50.236;22.452;2024-03-25T05:00:22;28.50;;;18.20;;
78430;SDS011;67727;50.236;22.452;2024-03-25T05:02:49;29.00;;;16.80;;
78430;SDS011;67727;50.236;22.452;2024-03-25T05:05:15;27.30;;;17.00;;
78430;SDS011;67727;50.236;22.452;2024-03-25T05:07:42;29.40;;;15.60;;
78430;SDS011;67727;50.236;22.452;2024-03-25T05:10:09;26.40;;;13.80;;
78430;SDS011;67727;50.236;22.452;2024-03-25T05:12:37;23.70;;;14.50;;
78430;SDS011;67727;50.236;22.452;2024-03-25T05:15:05;24.70;;;15.20;;
78430;SDS011;67727;50.236;22.452;2024-03-25T05:17:32;23.10;;;15.10;;
78430;SDS011;67727;50.236;22.452;2024-03-25T05:19:59;29.00;;;15.30;;
78430;SDS011;67727;50.236;22.452;2024-03-25T05:22:25;28.60;;;14.70;;
78430;SDS011;67727;50.236;22.452;2024-03-25T05:24:52;27.20;;;15.40;;
78430;SDS011;67727;50.236;22.452;2024-03-25T05:27:19;32.20;;;16.00;;
78430;SDS011;67727;50.236;22.452;2024-03-25T05:29:46;29.10;;;16.20;;
78430;SDS011;67727;50.236;22.452;2024-03-25T05:32:12;25.60;;;15.80;;
78430;SDS011;67727;50.236;22.452;2024-03-25T05:34:39;28.90;;;17.10;;
78430;SDS011;67727;50.236;22.452;2024-03-25T05:37:06;25.80;;;15.30;;
78430;SDS011;67727;50.236;22.452;2024-03-25T05:39:33;27.40;;;15.60;;
78430;SDS011;67727;50.236;22.452;2024-03-25T05:42:00;29.20;;;15.80;;
78430;SDS011;67727;50.236;22.452;2024-03-25T05:44:26;26.80;;;15.80;;
78430;SDS011;67727;50.236;22.452;2024-03-25T05:46:53;27.70;;;16.10;;
78430;SDS011;67727;50.236;22.452;2024-03-25T05:49:20;30.00;;;16.40;;
78430;SDS011;67727;50.236;22.452;2024-03-25T05:51:47;28.50;;;15.80;;
78430;SDS011;67727;50.236;22.452;2024-03-25T05:54:14;26.00;;;15.10;;
78430;SDS011;67727;50.236;22.452;2024-03-25T05:56:41;24.90;;;13.00;;
78430;SDS011;67727;50.236;22.452;2024-03-25T05:59:07;32.00;;;15.10;;
78430;SDS011;67727;50.236;22.452;2024-03-25T06:01:34;26.70;;;14.90;;
78430;SDS011;67727;50.236;22.452;2024-03-25T06:04:03;23.50;;;14.00;;
78430;SDS011;67727;50.236;22.452;2024-03-25T06:06:30;28.00;;;14.70;;
78430;SDS011;67727;50.236;22.452;2024-03-25T06:08:57;28.90;;;14.70;;
78430;SDS011;67727;50.236;22.452;2024-03-25T06:11:24;24.70;;;14.80;;
78430;SDS011;67727;50.236;22.452;2024-03-25T06:13:51;27.10;;;15.00;;
78430;SDS011;67727;50.236;22.452;2024-03-25T06:16:18;31.10;;;16.70;;
78430;SDS011;67727;50.236;22.452;2024-03-25T06:18:44;27.50;;;17.20;;
78430;SDS011;67727;50.236;22.452;2024-03-25T06:21:11;29.90;;;18.40;;
78430;SDS011;67727;50.236;22.452;2024-03-25T06:23:39;33.60;;;16.50;;
78430;SDS011;67727;50.236;22.452;2024-03-25T06:26:07;27.70;;;16.10;;
78430;SDS011;67727;50.236;22.452;2024-03-25T06:28:33;25.90;;;18.00;;
78430;SDS011;67727;50.236;22.452;2024-03-25T06:31:00;30.10;;;16.40;;
78430;SDS011;67727;50.236;22.452;2024-03-25T06:33:45;30.50;;;16.80;;
78430;SDS011;67727;50.236;22.452;2024-03-25T06:36:31;31.20;;;16.80;;
78430;SDS011;67727;50.236;22.452;2024-03-25T06:38:58;28.60;;;17.20;;
78430;SDS011;67727;50.236;22.452;2024-03-25T06:41:25;26.00;;;15.60;;
78430;SDS011;67727;50.236;22.452;2024-03-25T06:43:51;31.30;;;16.40;;
78430;SDS011;67727;50.236;22.452;2024-03-25T06:46:19;31.30;;;16.40;;
78430;SDS011;67727;50.236;22.452;2024-03-25T06:48:45;30.70;;;17.90;;
78430;SDS011;67727;50.236;22.452;2024-03-25T06:51:12;29.00;;;17.30;;
78430;SDS011;67727;50.236;22.452;2024-03-25T06:53:39;28.60;;;16.70;;
78430;SDS011;67727;50.236;22.452;2024-03-25T06:56:06;31.30;;;17.10;;
78430;SDS011;67727;50.236;22.452;2024-03-25T06:58:33;30.30;;;16.30;;
78430;SDS011;67727;50.236;22.452;2024-03-25T07:01:03;29.20;;;15.60;;
78430;SDS011;67727;50.236;22.452;2024-03-25T07:03:32;20.80;;;12.80;;
78430;SDS011;67727;50.236;22.452;2024-03-25T07:05:59;18.20;;;11.30;;
78430;SDS011;67727;50.236;22.452;2024-03-25T07:08:27;18.80;;;10.40;;
78430;SDS011;67727;50.236;22.452;2024-03-25T07:10:54;14.20;;;9.80;;
78430;SDS011;67727;50.236;22.452;2024-03-25T07:13:21;16.20;;;9.50;;
78430;SDS011;67727;50.236;22.452;2024-03-25T07:18:16;12.50;;;8.10;;
78430;SDS011;67727;50.236;22.452;2024-03-25T07:20:43;12.60;;;7.60;;
78430;SDS011;67727;50.236;22.452;2024-03-25T07:23:11;13.90;;;7.90;;
78430;SDS011;67727;50.236;22.452;2024-03-25T07:25:38;10.10;;;6.90;;
78430;SDS011;67727;50.236;22.452;2024-03-25T07:28:06;11.80;;;7.60;;
78430;SDS011;67727;50.236;22.452;2024-03-25T07:33:01;11.00;;;6.90;;
78430;SDS011;67727;50.236;22.452;2024-03-25T07:35:29;9.20;;;5.90;;
78430;SDS011;67727;50.236;22.452;2024-03-25T07:37:55;11.80;;;6.80;;
78430;SDS011;67727;50.236;22.452;2024-03-25T07:40:22;9.80;;;6.40;;
78430;SDS011;67727;50.236;22.452;2024-03-25T07:42:49;12.30;;;7.00;;
78430;SDS011;67727;50.236;22.452;2024-03-25T07:45:16;10.20;;;6.40;;
78430;SDS011;67727;50.236;22.452;2024-03-25T07:47:43;10.80;;;6.10;;
78430;SDS011;67727;50.236;22.452;2024-03-25T07:50:10;11.50;;;6.30;;
78430;SDS011;67727;50.236;22.452;2024-03-25T07:52:36;7.70;;;5.80;;
78430;SDS011;67727;50.236;22.452;2024-03-25T07:55:07;9.30;;;5.80;;
78430;SDS011;67727;50.236;22.452;2024-03-25T08:00:01;8.50;;;5.70;;
78430;SDS011;67727;50.236;22.452;2024-03-25T08:02:32;11.70;;;6.20;;
78430;SDS011;67727;50.236;22.452;2024-03-25T08:04:58;7.40;;;5.50;;
78430;SDS011;67727;50.236;22.452;2024-03-25T08:07:25;9.80;;;6.40;;
78430;SDS011;67727;50.236;22.452;2024-03-25T08:09:52;7.80;;;5.20;;
78430;SDS011;67727;50.236;22.452;2024-03-25T08:12:19;8.20;;;6.10;;
78430;SDS011;67727;50.236;22.452;2024-03-25T08:14:46;10.80;;;6.40;;
78430;SDS011;67727;50.236;22.452;2024-03-25T08:17:12;9.70;;;5.90;;
78430;SDS011;67727;50.236;22.452;2024-03-25T08:19:39;10.40;;;5.70;;
78430;SDS011;67727;50.236;22.452;2024-03-25T08:22:06;11.00;;;5.60;;
78430;SDS011;67727;50.236;22.452;2024-03-25T08:24:33;8.50;;;5.40;;
78430;SDS011;67727;50.236;22.452;2024-03-25T08:26:59;11.30;;;5.50;;
78430;SDS011;67727;50.236;22.452;2024-03-25T08:29:26;8.40;;;5.70;;
78430;SDS011;67727;50.236;22.452;2024-03-25T08:31:53;9.40;;;5.50;;
78430;SDS011;67727;50.236;22.452;2024-03-25T08:34:20;8.20;;;5.30;;
78430;SDS011;67727;50.236;22.452;2024-03-25T08:36:46;13.00;;;6.50;;
78430;SDS011;67727;50.236;22.452;2024-03-25T08:39:13;8.50;;;5.00;;
78430;SDS011;67727;50.236;22.452;2024-03-25T08:41:40;9.10;;;5.20;;
78430;SDS011;67727;50.236;22.452;2024-03-25T08:44:07;9.70;;;5.90;;
78430;SDS011;67727;50.236;22.452;2024-03-25T08:46:34;8.70;;;5.80;;
78430;SDS011;67727;50.236;22.452;2024-03-25T08:49:01;10.00;;;6.30;;
78430;SDS011;67727;50.236;22.452;2024-03-25T08:51:28;8.20;;;4.90;;
78430;SDS011;67727;50.236;22.452;2024-03-25T08:53:55;8.00;;;4.70;;
78430;SDS011;67727;50.236;22.452;2024-03-25T08:56:22;6.20;;;4.80;;
78430;SDS011;67727;50.236;22.452;2024-03-25T08:58:49;10.60;;;6.00;;
78430;SDS011;67727;50.236;22.452;2024-03-25T09:01:15;6.80;;;4.90;;
78430;SDS011;67727;50.236;22.452;2024-03-25T09:03:42;5.90;;;4.50;;
78430;SDS011;67727;50.236;22.452;2024-03-25T09:06:10;8.90;;;4.40;;
78430;SDS011;67727;50.236;22.452;2024-03-25T09:08:37;9.10;;;4.90;;
78430;SDS011;67727;50.236;22.452;2024-03-25T09:11:24;7.90;;;4.80;;
78430;SDS011;67727;50.236;22.452;2024-03-25T09:16:18;5.80;;;3.80;;
78430;SDS011;67727;50.236;22.452;2024-03-25T09:18:45;5.00;;;3.80;;
78430;SDS011;67727;50.236;22.452;2024-03-25T09:21:12;5.00;;;3.50;;
78430;SDS011;67727;50.236;22.452;2024-03-25T09:23:39;8.20;;;3.60;;
78430;SDS011;67727;50.236;22.452;2024-03-25T09:26:06;5.70;;;4.00;;
78430;SDS011;67727;50.236;22.452;2024-03-25T09:28:33;4.40;;;3.40;;
78430;SDS011;67727;50.236;22.452;2024-03-25T09:31:00;4.50;;;3.30;;
78430;SDS011;67727;50.236;22.452;2024-03-25T09:33:26;5.40;;;3.80;;
78430;SDS011;67727;50.236;22.452;2024-03-25T09:35:53;4.70;;;3.30;;
78430;SDS011;67727;50.236;22.452;2024-03-25T09:38:20;5.40;;;4.00;;
78430;SDS011;67727;50.236;22.452;2024-03-25T09:40:47;5.50;;;3.40;;
78430;SDS011;67727;50.236;22.452;2024-03-25T09:43:20;7.80;;;4.10;;
78430;SDS011;67727;50.236;22.452;2024-03-25T09:45:51;10.70;;;5.60;;
78430;SDS011;67727;50.236;22.452;2024-03-25T09:48:19;6.10;;;4.20;;
78430;SDS011;67727;50.236;22.452;2024-03-25T09:50:48;6.20;;;3.80;;
78430;SDS011;67727;50.236;22.452;2024-03-25T09:53:15;5.80;;;3.90;;
78430;SDS011;67727;50.236;22.452;2024-03-25T09:55:42;7.40;;;3.90;;
78430;SDS011;67727;50.236;22.452;2024-03-25T09:58:10;6.00;;;3.90;;
78430;SDS011;67727;50.236;22.452;2024-03-25T10:00:37;6.90;;;4.00;;
78430;SDS011;67727;50.236;22.452;2024-03-25T10:03:04;5.20;;;3.70;;
78430;SDS011;67727;50.236;22.452;2024-03-25T10:05:31;5.20;;;4.10;;
78430;SDS011;67727;50.236;22.452;2024-03-25T10:10:26;4.60;;;3.30;;
78430;SDS011;67727;50.236;22.452;2024-03-25T10:15:23;5.40;;;2.90;;
78430;SDS011;67727;50.236;22.452;2024-03-25T10:17:50;5.40;;;3.50;;
78430;SDS011;67727;50.236;22.452;2024-03-25T10:20:18;4.50;;;3.10;;
78430;SDS011;67727;50.236;22.452;2024-03-25T10:22:45;3.70;;;2.50;;
78430;SDS011;67727;50.236;22.452;2024-03-25T10:27:56;6.40;;;3.70;;
78430;SDS011;67727;50.236;22.452;2024-03-25T10:30:23;8.20;;;4.00;;
78430;SDS011;67727;50.236;22.452;2024-03-25T10:33:05;5.00;;;2.70;;
78430;SDS011;67727;50.236;22.452;2024-03-25T10:35:34;4.00;;;2.40;;
78430;SDS011;67727;50.236;22.452;2024-03-25T10:38:03;3.20;;;2.60;;
78430;SDS011;67727;50.236;22.452;2024-03-25T10:40:34;4.60;;;2.50;;
78430;SDS011;67727;50.236;22.452;2024-03-25T10:43:06;4.40;;;3.00;;
78430;SDS011;67727;50.236;22.452;2024-03-25T10:45:35;3.90;;;2.80;;
78430;SDS011;67727;50.236;22.452;2024-03-25T10:48:15;4.00;;;2.50;;
78430;SDS011;67727;50.236;22.452;2024-03-25T10:50:43;6.10;;;3.40;;
78430;SDS011;67727;50.236;22.452;2024-03-25T10:53:12;4.50;;;3.00;;
78430;SDS011;67727;50.236;22.452;2024-03-25T10:55:47;6.30;;;3.40;;
78430;SDS011;67727;50.236;22.452;2024-03-25T10:58:16;4.00;;;3.10;;
78430;SDS011;67727;50.236;22.452;2024-03-25T11:00:45;5.40;;;3.20;;
78430;SDS011;67727;50.236;22.452;2024-03-25T11:03:14;36.10;;;13.20;;
78430;SDS011;67727;50.236;22.452;2024-03-25T11:05:42;26.70;;;8.60;;
78430;SDS011;67727;50.236;22.452;2024-03-25T11:08:17;8.80;;;4.70;;
78430;SDS011;67727;50.236;22.452;2024-03-25T11:10:45;5.20;;;2.90;;
78430;SDS011;67727;50.236;22.452;2024-03-25T11:13:14;4.60;;;3.00;;
78430;SDS011;67727;50.236;22.452;2024-03-25T11:15:44;13.30;;;5.00;;
78430;SDS011;67727;50.236;22.452;2024-03-25T11:18:12;9.00;;;6.80;;
78430;SDS011;67727;50.236;22.452;2024-03-25T11:20:40;4.30;;;3.10;;
78430;SDS011;67727;50.236;22.452;2024-03-25T11:25:38;7.20;;;3.40;;
78430;SDS011;67727;50.236;22.452;2024-03-25T11:28:06;6.60;;;3.60;;
78430;SDS011;67727;50.236;22.452;2024-03-25T11:30:33;5.10;;;3.40;;
78430;SDS011;67727;50.236;22.452;2024-03-25T11:33:02;3.70;;;2.70;;
78430;SDS011;67727;50.236;22.452;2024-03-25T11:35:38;4.70;;;2.80;;
78430;SDS011;67727;50.236;22.452;2024-03-25T11:38:05;3.70;;;2.90;;
78430;SDS011;67727;50.236;22.452;2024-03-25T11:40:32;4.30;;;3.20;;
78430;SDS011;67727;50.236;22.452;2024-03-25T11:42:59;6.20;;;4.30;;
78430;SDS011;67727;50.236;22.452;2024-03-25T11:45:27;4.60;;;3.40;;
78430;SDS011;67727;50.236;22.452;2024-03-25T11:47:54;3.90;;;2.90;;
78430;SDS011;67727;50.236;22.452;2024-03-25T11:50:20;6.70;;;3.90;;
78430;SDS011;67727;50.236;22.452;2024-03-25T11:52:47;6.90;;;4.20;;
78430;SDS011;67727;50.236;22.452;2024-03-25T11:55:18;7.00;;;4.10;;
78430;SDS011;67727;50.236;22.452;2024-03-25T11:57:45;14.00;;;6.50;;
78430;SDS011;67727;50.236;22.452;2024-03-25T12:00:12;12.00;;;5.80;;
78430;SDS011;67727;50.236;22.452;2024-03-25T12:02:47;6.80;;;3.60;;
78430;SDS011;67727;50.236;22.452;2024-03-25T12:05:14;6.90;;;4.20;;
78430;SDS011;67727;50.236;22.452;2024-03-25T12:07:41;4.20;;;3.20;;
78430;SDS011;67727;50.236;22.452;2024-03-25T12:10:08;5.20;;;3.40;;
78430;SDS011;67727;50.236;22.452;2024-03-25T12:12:55;4.00;;;3.00;;
78430;SDS011;67727;50.236;22.452;2024-03-25T12:20:19;3.50;;;2.60;;
78430;SDS011;67727;50.236;22.452;2024-03-25T12:22:46;4.80;;;3.00;;
78430;SDS011;67727;50.236;22.452;2024-03-25T12:25:15;3.70;;;3.00;;
78430;SDS011;67727;50.236;22.452;2024-03-25T12:27:45;4.70;;;3.00;;
78430;SDS011;67727;50.236;22.452;2024-03-25T12:30:13;3.90;;;2.80;;
78430;SDS011;67727;50.236;22.452;2024-03-25T12:32:40;6.50;;;4.50;;
78430;SDS011;67727;50.236;22.452;2024-03-25T12:35:09;6.20;;;3.80;;
78430;SDS011;67727;50.236;22.452;2024-03-25T12:37:38;4.50;;;3.30;;
78430;SDS011;67727;50.236;22.452;2024-03-25T12:40:05;4.80;;;3.10;;
78430;SDS011;67727;50.236;22.452;2024-03-25T12:42:35;4.50;;;3.10;;
78430;SDS011;67727;50.236;22.452;2024-03-25T12:45:02;6.00;;;3.50;;
78430;SDS011;67727;50.236;22.452;2024-03-25T12:49:57;4.70;;;3.30;;
78430;SDS011;67727;50.236;22.452;2024-03-25T12:52:25;7.90;;;5.60;;
78430;SDS011;67727;50.236;22.452;2024-03-25T12:54:52;7.70;;;5.00;;
78430;SDS011;67727;50.236;22.452;2024-03-25T12:57:19;6.00;;;3.50;;
78430;SDS011;67727;50.236;22.452;2024-03-25T12:59:46;7.90;;;4.90;;
78430;SDS011;67727;50.236;22.452;2024-03-25T13:02:13;9.00;;;5.20;;
78430;SDS011;67727;50.236;22.452;2024-03-25T13:04:40;8.30;;;5.10;;
78430;SDS011;67727;50.236;22.452;2024-03-25T13:07:08;5.00;;;3.00;;
78430;SDS011;67727;50.236;22.452;2024-03-25T13:09:35;5.70;;;3.00;;
78430;SDS011;67727;50.236;22.452;2024-03-25T13:12:02;5.00;;;2.90;;
78430;SDS011;67727;50.236;22.452;2024-03-25T13:14:30;5.30;;;3.50;;
78430;SDS011;67727;50.236;22.452;2024-03-25T13:16:57;4.00;;;2.80;;
78430;SDS011;67727;50.236;22.452;2024-03-25T13:19:23;8.00;;;4.40;;
78430;SDS011;67727;50.236;22.452;2024-03-25T13:21:57;6.80;;;3.60;;
78430;SDS011;67727;50.236;22.452;2024-03-25T13:24:23;8.40;;;4.00;;
78430;SDS011;67727;50.236;22.452;2024-03-25T13:26:50;6.40;;;4.00;;
78430;SDS011;67727;50.236;22.452;2024-03-25T13:29:17;7.40;;;4.00;;
78430;SDS011;67727;50.236;22.452;2024-03-25T13:31:44;5.30;;;3.20;;
78430;SDS011;67727;50.236;22.452;2024-03-25T13:34:11;8.00;;;4.20;;
78430;SDS011;67727;50.236;22.452;2024-03-25T13:36:37;7.00;;;4.00;;
78430;SDS011;67727;50.236;22.452;2024-03-25T13:39:04;13.90;;;6.40;;
78430;SDS011;67727;50.236;22.452;2024-03-25T13:41:31;7.80;;;5.40;;
78430;SDS011;67727;50.236;22.452;2024-03-25T13:43:58;8.00;;;5.10;;
78430;SDS011;67727;50.236;22.452;2024-03-25T13:46:26;15.50;;;9.10;;
78430;SDS011;67727;50.236;22.452;2024-03-25T13:48:53;24.90;;;11.10;;
78430;SDS011;67727;50.236;22.452;2024-03-25T13:51:20;42.40;;;17.60;;
78430;SDS011;67727;50.236;22.452;2024-03-25T13:53:46;10.70;;;6.20;;
78430;SDS011;67727;50.236;22.452;2024-03-25T13:56:14;21.40;;;10.00;;
78430;SDS011;67727;50.236;22.452;2024-03-25T13:58:41;57.20;;;25.10;;
78430;SDS011;67727;50.236;22.452;2024-03-25T14:01:08;50.70;;;18.70;;
78430;SDS011;67727;50.236;22.452;2024-03-25T14:03:35;35.50;;;17.50;;
78430;SDS011;67727;50.236;22.452;2024-03-25T14:06:03;65.80;;;33.50;;
78430;SDS011;67727;50.236;22.452;2024-03-25T14:08:30;59.60;;;29.40;;
78430;SDS011;67727;50.236;22.452;2024-03-25T14:10:57;40.30;;;19.10;;
78430;SDS011;67727;50.236;22.452;2024-03-25T14:13:26;17.30;;;7.30;;
78430;SDS011;67727;50.236;22.452;2024-03-25T14:15:52;9.80;;;5.20;;
78430;SDS011;67727;50.236;22.452;2024-03-25T14:18:19;12.80;;;5.70;;
78430;SDS011;67727;50.236;22.452;2024-03-25T14:20:46;10.20;;;6.10;;
78430;SDS011;67727;50.236;22.452;2024-03-25T14:23:13;11.50;;;6.30;;
78430;SDS011;67727;50.236;22.452;2024-03-25T14:25:40;8.90;;;4.70;;
78430;SDS011;67727;50.236;22.452;2024-03-25T14:28:07;6.90;;;4.80;;
78430;SDS011;67727;50.236;22.452;2024-03-25T14:30:33;9.90;;;5.70;;
78430;SDS011;67727;50.236;22.452;2024-03-25T14:33:00;7.80;;;4.80;;
78430;SDS011;67727;50.236;22.452;2024-03-25T14:35:27;10.50;;;6.20;;
78430;SDS011;67727;50.236;22.452;2024-03-25T14:37:54;14.90;;;7.60;;
78430;SDS011;67727;50.236;22.452;2024-03-25T14:40:20;9.10;;;4.90;;
78430;SDS011;67727;50.236;22.452;2024-03-25T14:42:47;18.10;;;9.50;;
78430;SDS011;67727;50.236;22.452;2024-03-25T14:45:15;21.40;;;10.70;;
78430;SDS011;67727;50.236;22.452;2024-03-25T14:47:41;14.80;;;7.50;;
78430;SDS011;67727;50.236;22.452;2024-03-25T14:50:08;55.00;;;25.10;;